sensor_id;sensor_type;location;lat;lon;timestamp;pressure;altitude;pressure_sealevel;temperature;humidity
49571;BME280;36970;39.352;20.286;2022-08-03T00:09:32;99216.16;;;25.11;73.66
49571;BME280;36970;39.352;20.286;2022-08-03T00:39:50;99238.69;;;25.15;80.52
49571;BME280;36970;39.352;20.286;2022-08-03T01:10:13;99241.03;;;25.29;81.75
49571;BME280;36970;39.352;20.286;2022-08-03T01:40:35;99235.44;;;24.44;81.56
49571;BME280;36970;39.352;20.286;2022-08-03T02:10:56;99225.56;;;25.62;74.18
49571;BME280;36970;39.352;20.286;2022-08-03T02:41:17;99233.25;;;25.95;73.68
49571;BME280;36970;39.352;20.286;2022-08-03T03:11:38;99254.47;;;24.35;89.80
49571;BME280;36970;39.352;20.286;2022-08-03T03:41:57;99258.28;;;24.52;100.00
49571;BME280;36970;39.352;20.286;2022-08-03T04:12:15;99265.34;;;24.33;80.94
49571;BME280;36970;39.352;20.286;2022-08-03T04:42:35;99289.75;;;24.68;73.29
49571;BME280;36970;39.352;20.286;2022-08-03T05:12:53;99291.63;;;26.03;77.68
49571;BME280;36970;39.352;20.286;2022-08-03T05:43:11;99318.81;;;26.47;88.98
49571;BME280;36970;39.352;20.286;2022-08-03T06:13:28;99345.06;;;26.50;100.00
49571;BME280;36970;39.352;20.286;2022-08-03T06:43:46;99372.31;;;26.59;100.00
49571;BME280;36970;39.352;20.286;2022-08-03T07:14:03;99384.25;;;26.56;100.00
49571;BME280;36970;39.352;20.286;2022-08-03T07:44:22;99390.22;;;26.88;100.00
49571;BME280;36970;39.352;20.286;2022-08-03T08:14:39;99409.25;;;26.80;100.00
49571;BME280;36970;39.352;20.286;2022-08-03T08:44:58;99426.38;;;27.38;90.85
49571;BME280;36970;39.352;20.286;2022-08-03T09:15:21;99437.31;;;27.66;82.23
49571;BME280;36970;39.352;20.286;2022-08-03T09:45:39;99432.19;;;28.17;67.78
49571;BME280;36970;39.352;20.286;2022-08-03T10:15:56;99414.03;;;29.44;45.52
49571;BME280;36970;39.352;20.286;2022-08-03T10:46:14;99390.53;;;28.95;45.04
49571;BME280;36970;39.352;20.286;2022-08-03T11:16:35;99364.34;;;29.69;62.31
49571;BME280;36970;39.352;20.286;2022-08-03T11:46:53;99349.72;;;29.32;95.20
49571;BME280;36970;39.352;20.286;2022-08-03T12:17:11;99335.66;;;29.70;91.54
49571;BME280;36970;39.352;20.286;2022-08-03T12:47:28;99334.19;;;29.62;98.07
49571;BME280;36970;39.352;20.286;2022-08-03T13:17:46;99316.78;;;30.79;90.85
49571;BME280;36970;39.352;20.286;2022-08-03T13:48:04;99307.06;;;31.89;68.79
49571;BME280;36970;39.352;20.286;2022-08-03T14:18:21;99302.38;;;31.43;67.27
49571;BME280;36970;39.352;20.286;2022-08-03T14:48:39;99302.09;;;31.39;67.50
49571;BME280;36970;39.352;20.286;2022-08-03T15:18:57;99292.47;;;31.48;63.95
49571;BME280;36970;39.352;20.286;2022-08-03T15:49:15;99299.72;;;32.21;59.27
49571;BME280;36970;39.352;20.286;2022-08-03T16:19:32;99277.78;;;31.61;63.35
49571;BME280;36970;39.352;20.286;2022-08-03T16:49:50;99280.88;;;31.43;55.90
49571;BME280;36970;39.352;20.286;2022-08-03T17:20:09;99298.63;;;28.66;63.52
49571;BME280;36970;39.352;20.286;2022-08-03T17:50:35;99310.50;;;27.85;63.01
49571;BME280;36970;39.352;20.286;2022-08-03T18:20:53;99311.50;;;27.72;61.15
49571;BME280;36970;39.352;20.286;2022-08-03T18:51:13;99341.25;;;27.64;58.96
49571;BME280;36970;39.352;20.286;2022-08-03T19:21:34;99346.97;;;27.68;50.92
49571;BME280;36970;39.352;20.286;2022-08-03T19:51:52;99344.78;;;27.24;49.60
49571;BME280;36970;39.352;20.286;2022-08-03T20:22:12;99333.78;;;26.84;52.04
49571;BME280;36970;39.352;20.286;2022-08-03T20:52:31;99323.44;;;25.80;61.06
49571;BME280;36970;39.352;20.286;2022-08-03T21:22:51;99347.97;;;26.31;58.86
49571;BME280;36970;39.352;20.286;2022-08-03T21:53:09;99352.75;;;25.24;64.43
49571;BME280;36970;39.352;20.286;2022-08-03T22:23:27;99370.13;;;25.33;65.81
49571;BME280;36970;39.352;20.286;2022-08-03T22:53:45;99385.66;;;25.36;65.27
49571;BME280;36970;39.352;20.286;2022-08-03T23:24:05;99363.63;;;25.16;70.58
49571;BME280;36970;39.352;20.286;2022-08-03T23:54:29;99378.00;;;24.65;68.70
